Terminal Aerodrome Forecast
Issued by NWS Des Moines, IA

Home | Current Version | Previous Version | Text Only | Print | Product List | Glossary On
Versions: 1 2 3 4 5 6 7 8 9 10 11 12 13 14 15 16 17 18 19 20 21
000
FTUS43 KDMX 021957 AAA
TAFALO
TAF AMD
KALO 021957Z 0220/0318 30012KT P6SM SCT020 OVC030
      TEMPO 0220/0223 OVC022
     FM030900 28004KT P6SM OVC022=

USA.gov is the U.S. government's official web portal to all federal, state and local government web resources and services.